createdAt,value
2023-03-15T00:00:28.741Z,79.20
2023-03-15T00:03:31.071Z,79.90
2023-03-15T00:06:33.908Z,79.40
2023-03-15T00:09:39.232Z,79.30
2023-03-15T00:12:41.492Z,79.10
2023-03-15T00:15:52.010Z,79.70
2023-03-15T00:18:55.447Z,79.60
2023-03-15T00:21:57.448Z,80.40
2023-03-15T00:28:15.972Z,80.90
2023-03-15T00:31:20.774Z,80.60
2023-03-15T00:34:23.117Z,80.20
2023-03-15T00:37:25.151Z,79.90
2023-03-15T00:40:27.630Z,79.00
2023-03-15T00:43:29.559Z,79.20
2023-03-15T00:46:31.614Z,78.40
2023-03-15T00:49:33.667Z,79.00
2023-03-15T00:52:37.744Z,78.40
2023-03-15T00:55:39.735Z,77.80
2023-03-15T00:58:42.236Z,77.70
2023-03-15T01:04:50.250Z,78.30
2023-03-15T01:07:54.060Z,77.80
2023-03-15T01:11:02.382Z,77.40
2023-03-15T01:14:05.100Z,78.20
2023-03-15T01:17:07.063Z,78.00
2023-03-15T01:20:13.746Z,77.80
2023-03-15T01:23:17.546Z,77.70
2023-03-15T01:26:23.314Z,77.60
2023-03-15T01:29:25.303Z,77.70
2023-03-15T01:32:27.816Z,77.90
2023-03-15T01:38:59.686Z,77.30
2023-03-15T01:42:10.645Z,76.90
2023-03-15T01:45:51.840Z,77.70
2023-03-15T01:49:18.488Z,77.00
2023-03-15T01:52:25.970Z,77.70
2023-03-15T01:55:34.481Z,77.60
2023-03-15T01:58:45.940Z,77.30
2023-03-15T02:01:48.790Z,77.50
2023-03-15T02:05:06.191Z,77.70
2023-03-15T02:08:09.612Z,77.40
2023-03-15T02:11:14.060Z,77.30
2023-03-15T02:14:18.030Z,77.00
2023-03-15T02:17:22.345Z,76.70
2023-03-15T02:23:41.061Z,77.10
2023-03-15T02:26:48.594Z,76.50
2023-03-15T02:29:50.510Z,77.60
2023-03-15T02:32:56.402Z,77.20
2023-03-15T02:36:11.733Z,76.80
2023-03-15T02:39:16.642Z,77.20
2023-03-15T02:42:20.533Z,76.30
2023-03-15T02:45:25.626Z,76.60
2023-03-15T02:48:30.266Z,76.50
2023-03-15T02:54:39.586Z,76.70
2023-03-15T02:57:43.405Z,76.70
2023-03-15T03:00:45.583Z,77.10
2023-03-15T03:03:48.012Z,76.10
2023-03-15T03:06:50.073Z,77.10
2023-03-15T03:09:56.439Z,76.30
2023-03-15T03:12:58.780Z,77.40
2023-03-15T03:16:07.247Z,76.90
2023-03-15T03:19:13.403Z,77.60
2023-03-15T03:22:17.495Z,77.50
2023-03-15T03:28:39.492Z,77.80
2023-03-15T03:31:42.092Z,78.00
2023-03-15T03:34:45.082Z,78.00
2023-03-15T03:37:47.376Z,77.70
2023-03-15T03:40:59.984Z,77.70
2023-03-15T03:44:07.958Z,77.80
2023-03-15T03:47:11.292Z,78.60
2023-03-15T03:50:13.728Z,78.40
2023-03-15T03:53:16.224Z,77.80
2023-03-15T03:56:18.683Z,78.20
2023-03-15T03:59:27.920Z,78.20
2023-03-15T04:02:36.816Z,78.10
2023-03-15T04:05:43.355Z,78.30
2023-03-15T04:08:50.807Z,78.50
2023-03-15T04:12:07.050Z,78.40
2023-03-15T04:15:13.753Z,78.40
2023-03-15T04:18:17.042Z,77.90
2023-03-15T04:21:20.551Z,78.50
2023-03-15T04:24:23.222Z,78.40
2023-03-15T04:27:48.347Z,78.30
2023-03-15T04:31:10.691Z,79.10
2023-03-15T04:34:32.050Z,78.90
2023-03-15T04:37:41.211Z,78.80
2023-03-15T04:40:58.263Z,78.80
2023-03-15T04:44:14.523Z,78.90
2023-03-15T04:47:37.479Z,79.40
2023-03-15T04:50:58.346Z,79.50
2023-03-15T04:54:31.849Z,78.90
2023-03-15T04:57:54.262Z,79.20
2023-03-15T05:01:18.836Z,79.40
2023-03-15T05:04:20.805Z,79.90
2023-03-15T05:07:38.890Z,79.70
2023-03-15T05:10:51.998Z,80.00
2023-03-15T05:14:20.752Z,79.50
2023-03-15T05:17:49.193Z,79.50
2023-03-15T05:21:01.105Z,79.40
2023-03-15T05:24:26.818Z,79.40
2023-03-15T05:27:51.435Z,79.70
2023-03-15T05:31:12.906Z,79.30
2023-03-15T05:34:37.856Z,79.30
2023-03-15T05:37:58.440Z,79.40
2023-03-15T05:41:24.525Z,79.30
2023-03-15T05:44:41.687Z,79.20
2023-03-15T05:48:04.051Z,78.90
2023-03-15T05:51:30.116Z,78.50
2023-03-15T05:54:50.680Z,78.70
2023-03-15T05:58:21.101Z,79.00
2023-03-15T06:01:39.200Z,78.60
2023-03-15T06:04:52.032Z,78.20
2023-03-15T06:07:58.104Z,78.00
2023-03-15T06:11:00.473Z,77.70
2023-03-15T06:14:02.710Z,77.90
2023-03-15T06:17:26.060Z,77.80
2023-03-15T06:23:53.185Z,76.90
2023-03-15T06:26:55.632Z,76.70
2023-03-15T06:33:38.978Z,75.40
2023-03-15T06:36:44.424Z,75.60
2023-03-15T06:39:47.770Z,74.80
2023-03-15T06:42:49.648Z,75.00
2023-03-15T06:45:54.033Z,73.90
2023-03-15T06:48:57.806Z,70.80
2023-03-15T06:52:01.875Z,69.70
2023-03-15T06:58:23.115Z,69.30
2023-03-15T07:01:25.153Z,69.00
2023-03-15T07:04:27.420Z,65.70
2023-03-15T07:07:31.892Z,62.70
2023-03-15T07:10:34.163Z,62.20
2023-03-15T07:13:36.287Z,65.10
2023-03-15T07:16:38.270Z,65.50
2023-03-15T07:19:50.173Z,65.20
2023-03-15T07:22:57.667Z,65.00
2023-03-15T07:26:03.123Z,66.00
2023-03-15T07:29:05.148Z,66.60
2023-03-15T07:32:07.624Z,68.00
2023-03-15T07:35:12.956Z,68.70
2023-03-15T07:38:15.218Z,67.30
2023-03-15T07:41:17.419Z,66.40
2023-03-15T07:44:31.059Z,66.40
2023-03-15T07:47:33.225Z,67.30
2023-03-15T07:50:35.857Z,68.50
2023-03-15T07:53:39.246Z,67.50
2023-03-15T07:56:41.350Z,68.10
2023-03-15T07:59:43.218Z,65.80
2023-03-15T08:02:45.517Z,65.50
2023-03-15T08:09:02.556Z,66.10
2023-03-15T08:12:04.715Z,65.90
2023-03-15T08:15:13.099Z,66.60
2023-03-15T08:18:29.634Z,65.30
2023-03-15T08:21:37.276Z,61.50
2023-03-15T08:24:41.244Z,59.10
2023-03-15T08:27:43.341Z,55.90
2023-03-15T08:30:51.172Z,51.70
2023-03-15T08:33:58.938Z,48.60
2023-03-15T08:37:03.642Z,47.40
2023-03-15T08:43:23.023Z,51.50
2023-03-15T08:46:25.687Z,53.50
2023-03-15T08:49:27.628Z,55.40
2023-03-15T08:52:29.617Z,57.00
2023-03-15T08:55:31.477Z,57.10
2023-03-15T08:58:33.409Z,56.20
2023-03-15T09:01:35.477Z,57.30
2023-03-15T09:04:37.484Z,57.50
2023-03-15T09:07:39.930Z,56.70
2023-03-15T09:10:41.759Z,57.50
2023-03-15T09:13:43.664Z,56.60
2023-03-15T09:16:49.278Z,56.00
2023-03-15T09:19:51.324Z,52.70
2023-03-15T09:22:58.116Z,51.90
2023-03-15T09:26:00.562Z,49.20
2023-03-15T09:29:02.347Z,47.80
2023-03-15T09:32:04.554Z,48.50
2023-03-15T09:35:09.080Z,45.60
2023-03-15T09:38:11.112Z,49.70
2023-03-15T09:41:47.039Z,46.70
2023-03-15T09:44:56.945Z,47.30
2023-03-15T09:48:13.994Z,48.30
2023-03-15T09:55:09.831Z,48.30
2023-03-15T09:58:16.211Z,50.50
2023-03-15T10:01:19.386Z,48.50
2023-03-15T10:04:33.153Z,46.20
2023-03-15T10:07:35.858Z,47.10
2023-03-15T10:10:44.727Z,48.40
2023-03-15T10:14:18.760Z,48.10
2023-03-15T10:17:47.282Z,48.00
2023-03-15T10:20:57.417Z,48.90
2023-03-15T10:24:01.177Z,49.50
2023-03-15T10:27:14.895Z,49.30
2023-03-15T10:30:47.795Z,50.30
2023-03-15T10:33:50.223Z,50.40
2023-03-15T10:36:52.422Z,51.30
2023-03-15T10:39:57.297Z,52.00
2023-03-15T10:42:59.280Z,53.10
2023-03-15T10:46:07.408Z,54.60
2023-03-15T10:49:16.409Z,62.20
2023-03-15T10:52:31.465Z,65.30
2023-03-15T10:55:37.141Z,69.80
2023-03-15T10:59:09.214Z,70.70
2023-03-15T11:02:13.296Z,71.80
2023-03-15T11:05:19.069Z,74.00
2023-03-15T11:08:24.102Z,72.10
2023-03-15T11:11:26.099Z,74.90
2023-03-15T11:14:36.250Z,73.80
2023-03-15T11:17:47.198Z,74.30
2023-03-15T11:20:49.092Z,74.10
2023-03-15T11:23:52.482Z,74.70
2023-03-15T11:26:55.918Z,74.90
2023-03-15T11:29:59.811Z,73.30
2023-03-15T11:33:24.550Z,73.10
2023-03-15T11:37:05.369Z,72.10
2023-03-15T11:40:50.851Z,71.10
2023-03-15T11:44:30.632Z,71.10
2023-03-15T11:47:52.105Z,71.90
2023-03-15T12:03:29.575Z,65.10
2023-03-15T12:06:37.081Z,67.40
2023-03-15T12:09:41.242Z,68.30
2023-03-15T12:12:47.987Z,69.30
2023-03-15T12:15:50.978Z,66.70
2023-03-15T12:18:57.604Z,66.90
2023-03-15T12:21:59.613Z,65.60
2023-03-15T12:25:13.566Z,67.40
2023-03-15T12:28:30.934Z,67.40
2023-03-15T12:31:57.927Z,66.30
2023-03-15T12:35:15.565Z,63.60
2023-03-15T12:38:26.650Z,64.90
2023-03-15T12:41:40.401Z,65.30
2023-03-15T12:44:43.847Z,65.00
2023-03-15T12:47:51.894Z,66.40
2023-03-15T12:51:02.999Z,66.60
2023-03-15T12:54:08.304Z,66.10
2023-03-15T12:57:16.343Z,66.00
2023-03-15T13:00:22.252Z,66.20
2023-03-15T13:03:27.083Z,65.70
2023-03-15T13:07:04.240Z,67.10
2023-03-15T13:10:17.017Z,65.30
2023-03-15T13:13:37.433Z,65.60
2023-03-15T13:16:56.371Z,64.60
2023-03-15T13:23:28.185Z,63.30
2023-03-15T13:26:53.261Z,63.40
2023-03-15T13:29:55.160Z,62.90
2023-03-15T13:33:10.464Z,63.20
2023-03-15T13:36:15.435Z,63.50
2023-03-15T13:39:23.307Z,62.90
2023-03-15T13:42:26.308Z,60.20
2023-03-15T13:45:28.210Z,60.40
2023-03-15T13:48:35.394Z,58.20
2023-03-15T13:51:38.361Z,60.10
2023-03-15T13:54:41.621Z,60.10
2023-03-15T14:01:11.753Z,59.40
2023-03-15T14:04:17.582Z,58.60
2023-03-15T14:07:36.298Z,59.50
2023-03-15T14:10:40.821Z,60.20
2023-03-15T14:13:54.678Z,60.00
2023-03-15T14:17:05.283Z,60.60
2023-03-15T14:20:15.054Z,61.00
2023-03-15T14:23:19.358Z,60.70
2023-03-15T14:26:27.672Z,60.30
2023-03-15T14:29:35.846Z,60.40
2023-03-15T14:32:39.090Z,60.00
2023-03-15T14:35:44.740Z,58.70
2023-03-15T14:38:52.670Z,59.60
2023-03-15T14:41:54.692Z,57.60
2023-03-15T14:44:56.662Z,59.00
2023-03-15T14:48:38.432Z,58.40
2023-03-15T14:51:40.419Z,58.80
2023-03-15T14:54:49.193Z,59.60
2023-03-15T14:57:51.811Z,57.60
2023-03-15T15:00:55.424Z,58.80
2023-03-15T15:04:02.300Z,55.90
2023-03-15T15:07:04.304Z,59.80
2023-03-15T15:10:07.113Z,58.80
2023-03-15T15:13:21.405Z,59.60
2023-03-15T15:16:23.235Z,60.00
2023-03-15T15:19:25.373Z,63.90
2023-03-15T15:22:27.590Z,64.50
2023-03-15T15:25:30.006Z,64.60
2023-03-15T15:28:36.935Z,65.10
2023-03-15T15:31:39.340Z,65.50
2023-03-15T15:34:41.221Z,63.90
2023-03-15T15:37:45.504Z,64.20
2023-03-15T15:40:47.694Z,65.00
2023-03-15T15:43:49.683Z,65.00
2023-03-15T15:46:51.741Z,66.50
2023-03-15T15:49:53.611Z,66.40
2023-03-15T15:52:55.485Z,65.90
2023-03-15T15:55:57.953Z,65.00
2023-03-15T15:59:02.699Z,65.50
2023-03-15T16:02:14.740Z,65.60
2023-03-15T16:05:16.907Z,65.00
2023-03-15T16:08:24.834Z,65.10
2023-03-15T16:11:28.484Z,64.00
2023-03-15T16:14:30.380Z,64.20
2023-03-15T16:17:32.189Z,64.50
2023-03-15T16:20:34.253Z,65.10
2023-03-15T16:23:36.234Z,65.20
2023-03-15T16:26:39.255Z,65.60
2023-03-15T16:29:44.425Z,65.70
2023-03-15T16:32:46.450Z,67.10
2023-03-15T16:35:54.888Z,67.20
2023-03-15T16:38:56.891Z,67.00
2023-03-15T16:41:58.786Z,67.50
2023-03-15T16:45:00.849Z,67.70
2023-03-15T16:48:03.168Z,68.00
2023-03-15T16:51:05.144Z,68.50
2023-03-15T16:57:23.222Z,69.60
2023-03-15T17:00:25.448Z,69.90
2023-03-15T17:03:27.402Z,70.10
2023-03-15T17:06:36.512Z,70.10
2023-03-15T17:09:38.825Z,70.30
2023-03-15T17:12:41.493Z,71.10
2023-03-15T17:15:43.421Z,70.70
2023-03-15T17:18:45.301Z,70.90
2023-03-15T17:21:47.789Z,71.30
2023-03-15T17:24:49.723Z,72.10
2023-03-15T17:27:51.895Z,71.40
2023-03-15T17:30:59.712Z,69.50
2023-03-15T17:34:06.239Z,69.20
2023-03-15T17:37:09.200Z,68.60
2023-03-15T17:40:26.285Z,69.60
2023-03-15T17:43:28.156Z,69.60
2023-03-15T17:49:37.172Z,71.70
2023-03-15T17:52:39.872Z,73.10
2023-03-15T17:55:41.871Z,73.70
2023-03-15T17:58:43.960Z,74.20
2023-03-15T18:01:45.843Z,74.60
2023-03-15T18:04:47.892Z,74.40
2023-03-15T18:07:59.346Z,74.40
2023-03-15T18:11:32.642Z,74.30
2023-03-15T18:14:34.552Z,74.50
2023-03-15T18:17:36.392Z,74.80
2023-03-15T18:20:38.402Z,75.00
2023-03-15T18:23:47.347Z,75.80
2023-03-15T18:26:55.910Z,76.50
2023-03-15T18:30:06.389Z,76.60
2023-03-15T18:33:08.397Z,76.50
2023-03-15T18:36:10.354Z,76.50
2023-03-15T18:39:12.339Z,77.90
2023-03-15T18:42:14.275Z,78.40
2023-03-15T18:45:21.651Z,78.00
2023-03-15T18:48:34.105Z,77.70
2023-03-15T18:51:41.848Z,77.90
2023-03-15T18:54:43.784Z,78.20
2023-03-15T18:57:46.293Z,78.70
2023-03-15T19:00:48.410Z,79.40
2023-03-15T19:03:51.548Z,79.80
2023-03-15T19:10:09.803Z,79.70
2023-03-15T19:13:18.002Z,79.30
2023-03-15T19:16:23.097Z,79.10
2023-03-15T19:19:25.413Z,79.30
2023-03-15T19:22:27.258Z,79.70
2023-03-15T19:25:29.217Z,80.10
2023-03-15T19:28:31.223Z,79.70
2023-03-15T19:31:33.273Z,80.00
2023-03-15T19:34:35.154Z,80.50
2023-03-15T19:37:37.069Z,80.50
2023-03-15T19:40:39.126Z,80.90
2023-03-15T19:43:41.042Z,80.40
2023-03-15T19:46:43.215Z,80.90
2023-03-15T19:49:45.222Z,81.20
2023-03-15T19:52:47.067Z,81.40
2023-03-15T19:55:48.939Z,81.80
2023-03-15T19:58:50.872Z,81.80
2023-03-15T20:01:52.782Z,81.30
2023-03-15T20:04:54.696Z,81.00
2023-03-15T20:07:56.723Z,80.60
2023-03-15T20:11:02.355Z,80.90
2023-03-15T20:14:07.741Z,80.70
2023-03-15T20:17:09.591Z,81.00
2023-03-15T20:20:12.828Z,80.40
2023-03-15T20:23:14.684Z,80.20
2023-03-15T20:26:18.154Z,80.50
2023-03-15T20:29:20.299Z,80.40
2023-03-15T20:32:22.634Z,80.80
2023-03-15T20:35:24.522Z,81.20
2023-03-15T20:38:26.426Z,81.60
2023-03-15T20:41:28.774Z,81.40
2023-03-15T20:44:30.642Z,81.00
2023-03-15T20:47:32.735Z,81.10
2023-03-15T20:53:49.044Z,81.80
2023-03-15T20:56:50.953Z,82.00
2023-03-15T20:59:52.780Z,81.30
2023-03-15T21:02:54.665Z,81.90
2023-03-15T21:05:56.669Z,81.50
2023-03-15T21:08:58.747Z,81.50
2023-03-15T21:12:07.057Z,81.30
2023-03-15T21:15:09.170Z,81.90
2023-03-15T21:18:11.519Z,82.20
2023-03-15T21:21:13.734Z,81.90
2023-03-15T21:24:15.586Z,82.30
2023-03-15T21:30:24.664Z,81.80
2023-03-15T21:33:29.590Z,81.90
2023-03-15T21:36:31.483Z,81.50
2023-03-15T21:39:33.575Z,82.00
2023-03-15T21:42:35.614Z,81.60
2023-03-15T21:45:37.781Z,81.50
2023-03-15T21:48:40.225Z,81.30
2023-03-15T21:51:42.188Z,81.50
2023-03-15T21:54:44.176Z,81.60
2023-03-15T21:57:46.127Z,81.60
2023-03-15T22:00:48.032Z,81.80
2023-03-15T22:03:52.831Z,81.80
2023-03-15T22:06:54.877Z,81.30
2023-03-15T22:09:56.896Z,81.60
2023-03-15T22:12:58.711Z,81.80
2023-03-15T22:16:00.548Z,81.40
2023-03-15T22:19:02.473Z,81.10
2023-03-15T22:22:04.394Z,81.60
2023-03-15T22:25:06.566Z,81.80
2023-03-15T22:28:10.662Z,81.80
2023-03-15T22:31:12.558Z,81.50
2023-03-15T22:34:14.447Z,82.00
2023-03-15T22:37:16.267Z,81.50
2023-03-15T22:40:18.352Z,81.60
2023-03-15T22:43:20.257Z,81.60
2023-03-15T22:46:22.426Z,82.40
2023-03-15T22:49:24.329Z,82.00
2023-03-15T22:52:27.188Z,82.30
2023-03-15T22:55:29.053Z,82.20
2023-03-15T22:58:30.965Z,82.80
2023-03-15T23:01:32.957Z,82.90
2023-03-15T23:04:34.963Z,82.10
2023-03-15T23:07:36.863Z,82.40
2023-03-15T23:10:38.957Z,82.60
2023-03-15T23:13:40.845Z,82.80
2023-03-15T23:16:42.687Z,82.60
2023-03-15T23:19:45.605Z,82.60
2023-03-15T23:22:47.998Z,82.40
2023-03-15T23:25:50.866Z,82.60
2023-03-15T23:28:53.954Z,81.60
2023-03-15T23:31:55.857Z,81.70
2023-03-15T23:34:58.068Z,81.90
2023-03-15T23:37:59.986Z,82.20
2023-03-15T23:41:02.601Z,81.80
2023-03-15T23:44:04.517Z,81.80
2023-03-15T23:47:06.676Z,81.70
2023-03-15T23:50:10.350Z,81.60
2023-03-15T23:53:12.204Z,81.30
2023-03-15T23:56:14.437Z,81.30
2023-03-15T23:59:16.709Z,81.70
